createdAt,value
2022-10-24T00:01:28.083Z,15.13
2022-10-24T00:03:55.859Z,14.57
2022-10-24T00:06:32.800Z,10.50
2022-10-24T00:09:16.323Z,14.73
2022-10-24T00:11:58.899Z,12.60
2022-10-24T00:14:27.005Z,13.73
2022-10-24T00:16:54.707Z,10.88
2022-10-24T00:19:24.768Z,10.85
2022-10-24T00:21:55.557Z,12.32
2022-10-24T00:24:26.438Z,12.27
2022-10-24T00:26:54.273Z,10.82
2022-10-24T00:29:21.733Z,12.35
2022-10-24T00:31:53.004Z,15.65
2022-10-24T00:34:23.578Z,14.35
2022-10-24T00:36:53.325Z,12.15
2022-10-24T00:39:23.742Z,14.93
2022-10-24T00:42:02.519Z,13.60
2022-10-24T00:45:19.934Z,11.20
2022-10-24T00:47:57.277Z,15.13
2022-10-24T00:50:26.815Z,14.18
2022-10-24T00:52:55.633Z,13.88
2022-10-24T00:55:26.867Z,19.17
2022-10-24T00:58:08.824Z,10.20
2022-10-24T01:00:41.025Z,12.10
2022-10-24T01:03:20.217Z,15.38
2022-10-24T01:06:24.869Z,17.13
2022-10-24T01:09:22.429Z,17.65
2022-10-24T01:13:02.214Z,13.38
2022-10-24T01:16:10.740Z,13.73
2022-10-24T01:19:18.190Z,15.63
2022-10-24T01:22:48.254Z,13.73
2022-10-24T01:25:43.915Z,15.18
2022-10-24T01:28:21.491Z,16.88
2022-10-24T01:31:30.837Z,14.35
2022-10-24T01:34:26.753Z,14.45
2022-10-24T01:37:15.004Z,13.70
2022-10-24T01:39:48.891Z,14.23
2022-10-24T01:42:25.055Z,18.60
2022-10-24T01:45:04.731Z,14.02
2022-10-24T01:47:42.449Z,16.27
2022-10-24T01:50:28.724Z,9.05
2022-10-24T01:52:58.783Z,10.35
2022-10-24T01:55:32.399Z,10.60
2022-10-24T01:58:02.795Z,20.58
2022-10-24T02:00:33.013Z,20.05
2022-10-24T02:03:24.772Z,10.48
2022-10-24T02:06:41.197Z,18.58
2022-10-24T02:09:26.648Z,20.17
2022-10-24T02:12:01.883Z,17.55
2022-10-24T02:14:38.452Z,20.77
2022-10-24T02:17:13.716Z,25.58
2022-10-24T02:19:59.398Z,22.13
2022-10-24T02:22:46.169Z,26.92
2022-10-24T02:25:23.316Z,21.48
2022-10-24T02:28:07.323Z,21.45
2022-10-24T02:31:17.805Z,21.30
2022-10-24T02:45:49.627Z,24.13
2022-10-24T02:48:40.609Z,23.10
2022-10-24T02:53:11.796Z,25.98
2022-10-24T02:55:13.667Z,23.45
2022-10-24T02:58:18.286Z,24.80
2022-10-24T03:00:50.483Z,22.75
2022-10-24T03:03:38.455Z,24.30
2022-10-24T03:10:26.753Z,24.30
2022-10-24T03:13:28.698Z,24.23
2022-10-24T03:16:35.626Z,22.45
2022-10-24T03:20:15.443Z,23.33
2022-10-24T03:23:27.008Z,21.20
2022-10-24T03:26:43.614Z,16.33
2022-10-24T03:31:06.442Z,24.35
2022-10-24T03:32:40.287Z,20.30
2022-10-24T03:35:38.658Z,17.17
2022-10-24T03:38:09.539Z,17.42
2022-10-24T03:40:38.548Z,20.95
2022-10-24T03:45:53.211Z,15.95
2022-10-24T03:48:20.426Z,19.00
2022-10-24T03:50:50.731Z,20.27
2022-10-24T03:53:22.097Z,17.20
2022-10-24T03:55:49.659Z,15.98
2022-10-24T03:58:17.562Z,20.15
2022-10-24T04:00:44.941Z,16.48
2022-10-24T04:03:12.527Z,14.73
2022-10-24T04:05:40.386Z,16.77
2022-10-24T04:08:07.671Z,15.57
2022-10-24T04:10:35.158Z,13.45
2022-10-24T04:13:02.965Z,13.20
2022-10-24T04:15:33.009Z,14.05
2022-10-24T04:18:00.337Z,12.85
2022-10-24T04:20:28.161Z,14.52
2022-10-24T04:22:55.786Z,14.00
2022-10-24T04:25:23.200Z,14.57
2022-10-24T04:27:50.688Z,14.77
2022-10-24T04:30:17.956Z,14.80
2022-10-24T04:32:46.202Z,14.10
2022-10-24T04:35:14.473Z,11.82
2022-10-24T04:37:42.496Z,13.27
2022-10-24T04:40:10.216Z,17.92
2022-10-24T04:42:47.891Z,11.35
2022-10-24T04:45:15.573Z,11.93
2022-10-24T04:47:44.260Z,10.90
2022-10-24T04:50:11.913Z,12.38
2022-10-24T04:52:40.791Z,9.77
2022-10-24T04:55:08.617Z,11.07
2022-10-24T04:57:36.020Z,11.02
2022-10-24T05:00:04.615Z,11.60
2022-10-24T05:02:32.019Z,10.52
2022-10-24T05:05:02.083Z,11.20
2022-10-24T05:07:32.353Z,7.25
2022-10-24T05:10:00.170Z,11.82
2022-10-24T05:12:29.779Z,9.48
2022-10-24T05:14:57.378Z,8.50
2022-10-24T05:17:24.813Z,10.15
2022-10-24T05:19:52.286Z,8.65
2022-10-24T05:22:20.820Z,9.68
2022-10-24T05:24:48.083Z,11.13
2022-10-24T05:27:17.712Z,7.75
2022-10-24T05:29:45.150Z,7.80
2022-10-24T05:32:13.647Z,8.73
2022-10-24T05:34:48.594Z,9.48
2022-10-24T05:37:16.955Z,9.63
2022-10-24T05:39:47.474Z,10.30
2022-10-24T05:42:15.068Z,10.43
2022-10-24T05:44:42.636Z,6.45
2022-10-24T05:47:10.017Z,11.70
2022-10-24T05:49:37.475Z,10.45
2022-10-24T05:52:05.458Z,11.88
2022-10-24T05:54:42.576Z,9.02
2022-10-24T05:57:20.293Z,10.38
2022-10-24T05:59:47.759Z,10.65
2022-10-24T06:02:20.623Z,10.05
2022-10-24T06:04:48.779Z,14.68
2022-10-24T06:07:16.168Z,11.43
2022-10-24T06:09:43.420Z,7.93
2022-10-24T06:12:13.736Z,8.65
2022-10-24T06:14:41.749Z,11.40
2022-10-24T06:17:12.274Z,8.07
2022-10-24T06:19:40.676Z,11.70
2022-10-24T06:22:11.997Z,11.13
2022-10-24T06:24:39.512Z,8.85
2022-10-24T06:27:07.520Z,11.02
2022-10-24T06:29:35.944Z,14.40
2022-10-24T06:32:05.313Z,11.35
2022-10-24T06:34:32.789Z,13.45
2022-10-24T06:37:00.418Z,10.32
2022-10-24T06:39:27.732Z,11.75
2022-10-24T06:42:19.920Z,11.95
2022-10-24T06:44:47.289Z,13.95
2022-10-24T06:47:15.642Z,10.48
2022-10-24T06:49:42.965Z,10.90
2022-10-24T06:52:19.506Z,13.07
2022-10-24T06:54:46.780Z,12.93
2022-10-24T06:57:14.233Z,9.50
2022-10-24T06:59:41.517Z,12.95
2022-10-24T07:02:13.306Z,13.82
2022-10-24T07:05:50.618Z,9.60
2022-10-24T07:07:52.348Z,11.45
2022-10-24T07:10:19.806Z,10.15
2022-10-24T07:12:51.111Z,9.88
2022-10-24T07:15:21.803Z,10.52
2022-10-24T07:17:51.717Z,9.88
2022-10-24T07:20:19.178Z,11.70
2022-10-24T07:22:48.329Z,9.88
2022-10-24T07:25:19.304Z,10.02
2022-10-24T07:27:46.851Z,13.23
2022-10-24T07:30:18.323Z,11.55
2022-10-24T07:32:47.135Z,7.65
2022-10-24T07:35:15.133Z,8.70
2022-10-24T07:37:53.887Z,9.38
2022-10-24T07:40:21.625Z,10.18
2022-10-24T07:42:56.817Z,9.18
2022-10-24T07:45:30.425Z,7.47
2022-10-24T07:48:01.097Z,8.13
2022-10-24T07:50:29.771Z,10.93
2022-10-24T07:52:58.742Z,16.13
2022-10-24T07:55:33.029Z,12.93
2022-10-24T07:58:08.328Z,12.27
2022-10-24T08:00:38.249Z,17.85
2022-10-24T08:03:36.878Z,4.18
2022-10-24T08:06:09.087Z,6.68
2022-10-24T08:08:40.449Z,8.43
2022-10-24T08:11:18.242Z,6.90
2022-10-24T08:13:50.142Z,7.47
2022-10-24T08:16:21.701Z,8.07
2022-10-24T08:18:55.666Z,11.18
2022-10-24T08:21:24.380Z,9.45
2022-10-24T08:23:53.913Z,7.40
2022-10-24T08:26:26.192Z,8.90
2022-10-24T08:28:55.927Z,6.93
2022-10-24T08:31:26.523Z,19.25
2022-10-24T08:33:56.523Z,3.80
2022-10-24T08:36:30.392Z,4.63
2022-10-24T08:38:59.321Z,6.72
2022-10-24T08:41:43.160Z,4.75
2022-10-24T08:44:30.408Z,3.92
2022-10-24T08:47:08.490Z,3.75
2022-10-24T08:49:52.664Z,5.47
2022-10-24T08:52:35.575Z,5.80
2022-10-24T08:55:30.995Z,3.67
2022-10-24T08:58:06.727Z,5.13
2022-10-24T09:00:44.208Z,3.80
2022-10-24T09:06:27.969Z,5.75
2022-10-24T09:08:56.753Z,4.97
2022-10-24T09:11:45.079Z,5.80
2022-10-24T09:14:24.796Z,5.55
2022-10-24T09:16:56.927Z,6.22
2022-10-24T09:19:32.135Z,7.50
2022-10-24T09:22:02.870Z,4.10
2022-10-24T09:24:42.959Z,4.55
2022-10-24T09:29:53.278Z,5.90
2022-10-24T09:32:46.348Z,8.73
2022-10-24T09:35:20.994Z,7.70
2022-10-24T09:37:56.048Z,13.68
2022-10-24T09:40:51.006Z,5.30
2022-10-24T09:43:34.485Z,6.43
2022-10-24T09:46:06.609Z,6.80
2022-10-24T09:49:15.534Z,5.65
2022-10-24T09:52:21.750Z,6.22
2022-10-24T09:55:25.225Z,3.45
2022-10-24T09:58:00.020Z,4.97
2022-10-24T10:00:36.584Z,8.02
2022-10-24T10:03:23.449Z,4.78
2022-10-24T10:05:54.831Z,4.43
2022-10-24T10:08:31.448Z,2.75
2022-10-24T10:11:10.387Z,5.88
2022-10-24T10:13:52.990Z,4.57
2022-10-24T10:16:41.582Z,1.95
2022-10-24T10:19:24.504Z,2.22
2022-10-24T10:22:00.912Z,3.60
2022-10-24T10:24:40.819Z,1.85
2022-10-24T10:27:33.167Z,2.15
2022-10-24T10:30:24.583Z,3.20
2022-10-24T10:33:29.450Z,5.43
2022-10-24T10:36:18.515Z,4.50
2022-10-24T10:39:06.199Z,3.08
2022-10-24T10:42:17.215Z,3.42
2022-10-24T10:45:17.706Z,2.88
2022-10-24T10:48:03.309Z,3.08
2022-10-24T10:50:58.943Z,5.13
2022-10-24T10:53:46.982Z,2.15
2022-10-24T10:56:20.254Z,3.72
2022-10-24T10:59:08.712Z,4.82
2022-10-24T11:02:25.140Z,3.90
2022-10-24T11:06:04.706Z,5.30
2022-10-24T11:09:01.432Z,3.33
2022-10-24T11:11:41.889Z,3.38
2022-10-24T11:14:39.923Z,3.85
2022-10-24T11:17:25.760Z,3.10
2022-10-24T11:20:13.662Z,1.90
2022-10-24T11:22:52.933Z,3.53
2022-10-24T11:26:06.050Z,5.38
2022-10-24T11:29:20.332Z,4.97
2022-10-24T11:32:40.247Z,4.85
2022-10-24T11:35:34.732Z,5.13
2022-10-24T11:38:23.654Z,3.53
2022-10-24T11:41:05.007Z,2.58
2022-10-24T11:43:44.599Z,4.97
2022-10-24T11:46:32.712Z,5.63
2022-10-24T11:49:26.352Z,3.60
2022-10-24T11:52:09.913Z,5.30
2022-10-24T11:55:03.340Z,2.38
2022-10-24T11:57:37.556Z,4.85
2022-10-24T12:00:05.638Z,2.88
2022-10-24T12:03:17.788Z,1.88
2022-10-24T12:06:05.074Z,3.88
2022-10-24T12:09:15.515Z,6.25
2022-10-24T12:12:08.734Z,5.15
2022-10-24T12:15:06.492Z,8.48
2022-10-24T12:17:54.795Z,2.78
2022-10-24T12:20:33.958Z,1.52
2022-10-24T12:23:46.774Z,4.32
2022-10-24T12:26:41.064Z,3.40
2022-10-24T12:29:26.251Z,4.22
2022-10-24T12:32:01.125Z,1.23
2022-10-24T12:34:50.053Z,2.78
2022-10-24T12:37:27.288Z,1.73
2022-10-24T12:40:03.621Z,3.53
2022-10-24T12:42:52.454Z,3.05
2022-10-24T12:48:47.512Z,1.40
2022-10-24T12:52:12.354Z,3.75
2022-10-24T12:54:49.907Z,1.88
2022-10-24T12:57:32.582Z,1.00
2022-10-24T13:00:31.971Z,1.45
2022-10-24T13:09:10.953Z,4.10
2022-10-24T13:12:42.273Z,5.05
2022-10-24T13:15:39.597Z,4.22
2022-10-24T13:18:32.603Z,2.88
2022-10-24T13:21:36.934Z,5.13
2022-10-24T13:24:38.354Z,1.58
2022-10-24T13:27:13.147Z,8.25
2022-10-24T13:29:44.382Z,3.10
2022-10-24T13:32:36.471Z,3.33
2022-10-24T13:35:08.974Z,2.25
2022-10-24T13:38:00.660Z,3.55
2022-10-24T13:40:48.562Z,1.80
2022-10-24T13:43:22.669Z,1.77
2022-10-24T13:45:53.521Z,2.05
2022-10-24T13:48:37.308Z,3.53
2022-10-24T13:51:20.210Z,3.92
2022-10-24T13:53:54.719Z,3.15
2022-10-24T13:56:27.293Z,13.90
2022-10-24T14:01:41.770Z,2.75
2022-10-24T14:04:14.403Z,5.50
2022-10-24T14:06:47.340Z,2.53
2022-10-24T14:09:15.380Z,2.95
2022-10-24T14:11:51.967Z,4.35
2022-10-24T14:14:53.129Z,2.88
2022-10-24T14:17:28.472Z,2.65
2022-10-24T14:20:22.423Z,3.97
2022-10-24T14:22:57.966Z,3.58
2022-10-24T14:25:36.476Z,1.88
2022-10-24T14:28:25.018Z,1.92
2022-10-24T14:31:06.524Z,3.67
2022-10-24T14:33:46.764Z,4.35
2022-10-24T14:36:19.000Z,3.80
2022-10-24T14:38:51.661Z,7.05
2022-10-24T14:41:49.183Z,3.53
2022-10-24T14:47:06.149Z,3.50
2022-10-24T14:49:40.275Z,2.92
2022-10-24T14:52:13.026Z,19.63
2022-10-24T14:54:52.766Z,49.50
2022-10-24T14:57:23.024Z,4.78
2022-10-24T14:59:54.264Z,6.47
2022-10-24T15:03:33.855Z,9.95
2022-10-24T15:06:24.448Z,4.15
2022-10-24T15:09:20.592Z,2.25
2022-10-24T15:16:31.619Z,2.22
2022-10-24T15:19:06.281Z,5.05
2022-10-24T15:22:04.817Z,3.97
2022-10-24T15:24:35.664Z,4.63
2022-10-24T15:27:16.013Z,5.10
2022-10-24T15:30:17.943Z,6.57
2022-10-24T15:33:28.252Z,3.42
2022-10-24T15:36:01.198Z,1.73
2022-10-24T15:38:40.491Z,5.75
2022-10-24T15:41:09.984Z,4.47
2022-10-24T15:43:44.228Z,7.47
2022-10-24T15:46:14.243Z,4.85
2022-10-24T15:48:52.071Z,6.25
2022-10-24T15:51:25.270Z,3.55
2022-10-24T15:53:55.240Z,5.07
2022-10-24T15:56:28.223Z,4.25
2022-10-24T15:58:57.017Z,6.05
2022-10-24T16:01:37.300Z,12.13
2022-10-24T16:04:11.729Z,8.90
2022-10-24T16:09:47.559Z,10.65
2022-10-24T16:12:22.649Z,8.02
2022-10-24T16:14:55.541Z,5.05
2022-10-24T16:17:23.581Z,5.40
2022-10-24T16:19:57.198Z,4.25
2022-10-24T16:22:30.828Z,8.73
2022-10-24T16:24:58.125Z,4.10
2022-10-24T16:27:25.625Z,4.95
2022-10-24T16:29:56.563Z,10.18
2022-10-24T16:32:55.759Z,4.05
2022-10-24T16:35:30.213Z,5.80
2022-10-24T16:38:01.555Z,4.90
2022-10-24T16:40:30.426Z,3.95
2022-10-24T16:43:25.291Z,7.32
2022-10-24T16:46:01.554Z,5.32
2022-10-24T16:48:31.088Z,7.53
2022-10-24T16:50:58.442Z,7.32
2022-10-24T16:53:30.616Z,7.55
2022-10-24T16:55:59.414Z,4.57
2022-10-24T16:58:27.819Z,7.28
2022-10-24T17:01:03.191Z,5.72
2022-10-24T17:03:30.789Z,6.35
2022-10-24T17:05:59.837Z,10.23
2022-10-24T17:08:27.781Z,8.98
2022-10-24T17:10:56.077Z,9.35
2022-10-24T17:13:24.777Z,10.15
2022-10-24T17:15:52.427Z,4.00
2022-10-24T17:18:24.033Z,6.97
2022-10-24T17:20:51.797Z,6.60
2022-10-24T17:23:23.117Z,8.25
2022-10-24T17:25:50.605Z,11.15
2022-10-24T17:28:17.899Z,7.32
2022-10-24T17:30:45.350Z,10.50
2022-10-24T17:33:14.083Z,11.80
2022-10-24T17:35:46.852Z,8.18
2022-10-24T17:38:38.215Z,7.88
2022-10-24T17:41:18.403Z,14.88
2022-10-24T17:43:45.896Z,7.60
2022-10-24T17:46:13.831Z,11.15
2022-10-24T17:48:41.261Z,9.93
2022-10-24T17:51:15.204Z,9.45
2022-10-24T17:53:42.755Z,7.72
2022-10-24T17:56:37.899Z,6.35
2022-10-24T18:00:07.891Z,7.60
2022-10-24T18:02:13.716Z,10.95
2022-10-24T18:04:43.051Z,6.82
2022-10-24T18:07:12.373Z,5.38
2022-10-24T18:09:40.320Z,13.55
2022-10-24T18:12:07.951Z,9.23
2022-10-24T18:14:37.667Z,6.65
2022-10-24T18:17:06.148Z,10.55
2022-10-24T18:19:33.601Z,9.18
2022-10-24T18:22:03.765Z,6.60
2022-10-24T18:24:34.092Z,8.10
2022-10-24T18:27:07.172Z,9.38
2022-10-24T18:29:34.675Z,8.95
2022-10-24T18:32:16.227Z,6.97
2022-10-24T18:34:43.484Z,15.15
2022-10-24T18:37:14.266Z,9.35
2022-10-24T18:39:42.045Z,8.07
2022-10-24T18:43:00.079Z,5.07
2022-10-24T18:48:19.404Z,9.68
2022-10-24T18:51:20.521Z,12.93
2022-10-24T18:53:48.063Z,13.00
2022-10-24T18:56:18.669Z,15.90
2022-10-24T18:58:51.213Z,8.27
2022-10-24T19:01:58.257Z,10.23
2022-10-24T19:04:33.704Z,15.25
2022-10-24T19:07:03.648Z,20.23
2022-10-24T19:09:31.092Z,8.27
2022-10-24T19:11:58.643Z,12.90
2022-10-24T19:14:26.189Z,7.82
2022-10-24T19:16:55.410Z,7.32
2022-10-24T19:19:30.761Z,12.18
2022-10-24T19:21:59.375Z,6.28
2022-10-24T19:24:26.922Z,10.32
2022-10-24T19:26:57.338Z,14.50
2022-10-24T19:29:28.327Z,9.27
2022-10-24T19:31:59.931Z,6.43
2022-10-24T19:34:29.543Z,8.23
2022-10-24T19:36:59.347Z,9.07
2022-10-24T19:39:37.031Z,5.68
2022-10-24T19:42:08.261Z,13.70
2022-10-24T19:44:37.828Z,8.68
2022-10-24T19:47:10.942Z,8.27
2022-10-24T19:49:38.532Z,6.78
2022-10-24T19:52:10.448Z,8.48
2022-10-24T19:54:37.909Z,8.85
2022-10-24T19:57:06.182Z,9.77
2022-10-24T19:59:38.574Z,14.82
2022-10-24T20:02:06.452Z,10.00
2022-10-24T20:04:35.890Z,9.25
2022-10-24T20:07:04.344Z,10.55
2022-10-24T20:09:35.728Z,8.95
2022-10-24T20:12:05.977Z,9.27
2022-10-24T20:14:35.819Z,9.45
2022-10-24T20:17:11.399Z,8.63
2022-10-24T20:19:39.022Z,11.43
2022-10-24T20:22:08.839Z,6.68
2022-10-24T20:24:38.376Z,10.15
2022-10-24T20:29:36.816Z,5.18
2022-10-24T20:32:04.750Z,5.07
2022-10-24T20:34:32.136Z,4.72
2022-10-24T20:37:01.343Z,4.55
2022-10-24T20:39:28.927Z,3.33
2022-10-24T20:41:58.638Z,2.72
2022-10-24T20:44:28.114Z,2.42
2022-10-24T20:46:57.008Z,3.75
2022-10-24T20:49:29.420Z,7.82
2022-10-24T20:52:01.261Z,6.15
2022-10-24T20:54:31.574Z,5.40
2022-10-24T20:56:59.432Z,7.40
2022-10-24T20:59:26.892Z,6.53
2022-10-24T21:01:57.411Z,3.28
2022-10-24T21:04:25.545Z,3.65
2022-10-24T21:06:55.657Z,5.35
2022-10-24T21:09:28.334Z,3.63
2022-10-24T21:16:02.429Z,5.07
2022-10-24T21:18:30.197Z,6.43
2022-10-24T21:20:58.864Z,2.80
2022-10-24T21:23:28.895Z,2.35
2022-10-24T21:26:15.289Z,3.88
2022-10-24T21:28:46.949Z,3.78
2022-10-24T21:31:22.491Z,3.13
2022-10-24T21:33:50.881Z,3.22
2022-10-24T21:36:24.473Z,3.03
2022-10-24T21:39:00.437Z,2.40
2022-10-24T21:41:33.653Z,5.88
2022-10-24T21:44:03.326Z,5.28
2022-10-24T21:46:36.951Z,2.85
2022-10-24T21:49:04.375Z,3.95
2022-10-24T21:51:36.564Z,4.85
2022-10-24T21:56:37.044Z,4.82
2022-10-24T21:59:07.144Z,2.67
2022-10-24T22:01:43.909Z,2.13
2022-10-24T22:04:15.379Z,4.78
2022-10-24T22:06:46.357Z,3.35
2022-10-24T22:09:19.795Z,3.13
2022-10-24T22:11:47.879Z,4.50
2022-10-24T22:14:17.076Z,3.05
2022-10-24T22:16:48.019Z,4.75
2022-10-24T22:19:20.459Z,3.60
2022-10-24T22:22:42.616Z,3.30
2022-10-24T22:25:10.307Z,3.33
2022-10-24T22:27:38.463Z,7.28
2022-10-24T22:30:06.879Z,7.00
2022-10-24T22:32:35.844Z,2.65
2022-10-24T22:35:04.675Z,6.40
2022-10-24T22:37:33.161Z,3.97
2022-10-24T22:40:01.745Z,3.15
2022-10-24T22:42:30.491Z,6.43
2022-10-24T22:45:00.790Z,6.78
2022-10-24T22:47:55.382Z,7.18
2022-10-24T22:50:42.357Z,8.13
2022-10-24T22:53:37.202Z,9.93
2022-10-24T22:56:16.349Z,13.15
2022-10-24T22:58:45.920Z,10.55
2022-10-24T23:01:28.090Z,10.35
2022-10-24T23:04:25.330Z,8.80
2022-10-24T23:07:20.589Z,10.05
2022-10-24T23:09:49.941Z,6.45
2022-10-24T23:12:22.229Z,6.53
2022-10-24T23:14:58.317Z,9.95
2022-10-24T23:17:29.031Z,7.03
2022-10-24T23:20:00.533Z,9.98
2022-10-24T23:23:09.557Z,9.30
2022-10-24T23:25:52.832Z,10.50
2022-10-24T23:28:30.833Z,10.13
2022-10-24T23:30:58.344Z,7.22
2022-10-24T23:33:30.051Z,10.07
2022-10-24T23:35:59.599Z,7.25
2022-10-24T23:38:27.310Z,7.30
2022-10-24T23:40:56.532Z,6.25
2022-10-24T23:43:27.462Z,9.48
2022-10-24T23:46:03.293Z,8.68
2022-10-24T23:48:58.330Z,10.77
2022-10-24T23:51:33.350Z,18.23
2022-10-24T23:54:02.242Z,12.68
2022-10-24T23:56:30.331Z,8.45
2022-10-24T23:58:58.080Z,8.30
